Terminal Aerodrome Forecast
Issued by NWS Louisville, KY

Home | Current Version | Previous Version | Text Only | Print | Product List | Glossary On
Versions: 1 2 3 4 5 6 7 8 9 10 11 12 13 14 15 16 17 18 19 20
000
FTUS43 KLMK 052320
TAFSDF
TAF
KSDF 052320Z 0600/0706 32006KT P6SM SCT035 BKN080
     FM061400 34008KT P6SM SCT040
     FM070000 VRB05KT P6SM FEW050 SCT250=

USA.gov is the U.S. government's official web portal to all federal, state and local government web resources and services.